sensor_id;sensor_type;location;lat;lon;timestamp;P1;durP1;ratioP1;P2;durP2;ratioP2
24637;SDS011;12773;50.162;8.548;2023-04-15T00:02:16;6.80;;;2.10;;
24637;SDS011;12773;50.162;8.548;2023-04-15T00:05:05;7.00;;;2.20;;
24637;SDS011;12773;50.162;8.548;2023-04-15T00:07:52;8.03;;;2.40;;
24637;SDS011;12773;50.162;8.548;2023-04-15T00:10:40;6.37;;;2.10;;
24637;SDS011;12773;50.162;8.548;2023-04-15T00:13:29;4.03;;;2.12;;
24637;SDS011;12773;50.162;8.548;2023-04-15T00:16:18;5.05;;;1.82;;
24637;SDS011;12773;50.162;8.548;2023-04-15T00:19:06;10.55;;;2.50;;
24637;SDS011;12773;50.162;8.548;2023-04-15T00:21:54;5.92;;;1.98;;
24637;SDS011;12773;50.162;8.548;2023-04-15T00:24:42;4.87;;;1.98;;
24637;SDS011;12773;50.162;8.548;2023-04-15T00:27:29;4.50;;;2.27;;
24637;SDS011;12773;50.162;8.548;2023-04-15T00:30:17;7.20;;;2.17;;
24637;SDS011;12773;50.162;8.548;2023-04-15T00:33:06;3.47;;;2.22;;
24637;SDS011;12773;50.162;8.548;2023-04-15T00:35:54;5.70;;;2.30;;
24637;SDS011;12773;50.162;8.548;2023-04-15T00:38:42;4.00;;;2.25;;
24637;SDS011;12773;50.162;8.548;2023-04-15T00:41:29;4.78;;;2.47;;
24637;SDS011;12773;50.162;8.548;2023-04-15T00:44:18;5.80;;;2.20;;
24637;SDS011;12773;50.162;8.548;2023-04-15T00:47:06;4.10;;;2.33;;
24637;SDS011;12773;50.162;8.548;2023-04-15T00:49:54;6.10;;;2.72;;
24637;SDS011;12773;50.162;8.548;2023-04-15T00:52:42;3.75;;;2.12;;
24637;SDS011;12773;50.162;8.548;2023-04-15T00:55:30;7.17;;;2.50;;
24637;SDS011;12773;50.162;8.548;2023-04-15T00:58:17;5.95;;;2.50;;
24637;SDS011;12773;50.162;8.548;2023-04-15T01:01:05;3.92;;;2.08;;
24637;SDS011;12773;50.162;8.548;2023-04-15T01:03:58;4.75;;;2.35;;
24637;SDS011;12773;50.162;8.548;2023-04-15T01:06:46;7.28;;;2.52;;
24637;SDS011;12773;50.162;8.548;2023-04-15T01:09:33;4.37;;;2.47;;
24637;SDS011;12773;50.162;8.548;2023-04-15T01:12:21;5.87;;;2.17;;
24637;SDS011;12773;50.162;8.548;2023-04-15T01:15:10;7.37;;;2.20;;
24637;SDS011;12773;50.162;8.548;2023-04-15T01:18:00;5.37;;;2.30;;
24637;SDS011;12773;50.162;8.548;2023-04-15T01:20:48;3.98;;;2.33;;
24637;SDS011;12773;50.162;8.548;2023-04-15T01:23:36;6.47;;;2.35;;
24637;SDS011;12773;50.162;8.548;2023-04-15T01:26:24;5.80;;;2.45;;
24637;SDS011;12773;50.162;8.548;2023-04-15T01:29:12;3.35;;;2.33;;
24637;SDS011;12773;50.162;8.548;2023-04-15T01:32:00;4.70;;;2.15;;
24637;SDS011;12773;50.162;8.548;2023-04-15T01:34:47;5.37;;;2.25;;
24637;SDS011;12773;50.162;8.548;2023-04-15T01:37:35;3.58;;;2.40;;
24637;SDS011;12773;50.162;8.548;2023-04-15T01:40:24;6.22;;;2.30;;
24637;SDS011;12773;50.162;8.548;2023-04-15T01:43:12;5.72;;;2.25;;
24637;SDS011;12773;50.162;8.548;2023-04-15T01:46:00;4.42;;;2.25;;
24637;SDS011;12773;50.162;8.548;2023-04-15T01:48:47;6.40;;;2.17;;
24637;SDS011;12773;50.162;8.548;2023-04-15T01:51:35;7.10;;;2.22;;
24637;SDS011;12773;50.162;8.548;2023-04-15T01:54:23;3.52;;;2.25;;
24637;SDS011;12773;50.162;8.548;2023-04-15T01:57:12;7.40;;;2.12;;
24637;SDS011;12773;50.162;8.548;2023-04-15T01:59:59;8.73;;;2.75;;
24637;SDS011;12773;50.162;8.548;2023-04-15T02:02:48;5.70;;;2.52;;
24637;SDS011;12773;50.162;8.548;2023-04-15T02:05:35;3.80;;;2.27;;
24637;SDS011;12773;50.162;8.548;2023-04-15T02:08:23;4.87;;;2.50;;
24637;SDS011;12773;50.162;8.548;2023-04-15T02:11:11;4.83;;;2.37;;
24637;SDS011;12773;50.162;8.548;2023-04-15T02:13:58;5.37;;;2.60;;
24637;SDS011;12773;50.162;8.548;2023-04-15T02:16:46;4.58;;;2.10;;
24637;SDS011;12773;50.162;8.548;2023-04-15T02:19:33;4.62;;;2.33;;
24637;SDS011;12773;50.162;8.548;2023-04-15T02:22:21;5.70;;;2.08;;
24637;SDS011;12773;50.162;8.548;2023-04-15T02:25:08;4.08;;;2.33;;
24637;SDS011;12773;50.162;8.548;2023-04-15T02:27:56;3.80;;;1.98;;
24637;SDS011;12773;50.162;8.548;2023-04-15T02:30:46;5.87;;;2.40;;
24637;SDS011;12773;50.162;8.548;2023-04-15T02:33:35;3.92;;;2.47;;
24637;SDS011;12773;50.162;8.548;2023-04-15T02:36:23;4.62;;;2.52;;
24637;SDS011;12773;50.162;8.548;2023-04-15T02:39:11;4.25;;;1.95;;
24637;SDS011;12773;50.162;8.548;2023-04-15T02:42:00;6.80;;;2.27;;
24637;SDS011;12773;50.162;8.548;2023-04-15T02:44:48;5.35;;;2.40;;
24637;SDS011;12773;50.162;8.548;2023-04-15T02:47:35;6.12;;;2.58;;
24637;SDS011;12773;50.162;8.548;2023-04-15T02:50:24;5.08;;;2.12;;
24637;SDS011;12773;50.162;8.548;2023-04-15T02:53:12;3.25;;;2.33;;
24637;SDS011;12773;50.162;8.548;2023-04-15T02:56:02;4.00;;;2.25;;
24637;SDS011;12773;50.162;8.548;2023-04-15T02:58:51;5.58;;;2.17;;
24637;SDS011;12773;50.162;8.548;2023-04-15T03:01:40;8.95;;;2.17;;
24637;SDS011;12773;50.162;8.548;2023-04-15T03:04:28;8.05;;;2.35;;
24637;SDS011;12773;50.162;8.548;2023-04-15T03:07:16;4.15;;;2.50;;
24637;SDS011;12773;50.162;8.548;2023-04-15T03:10:03;4.03;;;2.45;;
24637;SDS011;12773;50.162;8.548;2023-04-15T03:12:51;6.87;;;2.87;;
24637;SDS011;12773;50.162;8.548;2023-04-15T03:15:38;4.55;;;2.65;;
24637;SDS011;12773;50.162;8.548;2023-04-15T03:18:26;6.17;;;2.75;;
24637;SDS011;12773;50.162;8.548;2023-04-15T03:21:13;3.45;;;2.30;;
24637;SDS011;12773;50.162;8.548;2023-04-15T03:24:01;4.95;;;2.40;;
24637;SDS011;12773;50.162;8.548;2023-04-15T03:26:49;2.67;;;2.27;;
24637;SDS011;12773;50.162;8.548;2023-04-15T03:29:36;5.40;;;2.40;;
24637;SDS011;12773;50.162;8.548;2023-04-15T03:32:23;5.30;;;2.30;;
24637;SDS011;12773;50.162;8.548;2023-04-15T03:35:12;4.28;;;2.45;;
24637;SDS011;12773;50.162;8.548;2023-04-15T03:37:59;6.25;;;2.40;;
24637;SDS011;12773;50.162;8.548;2023-04-15T03:40:46;4.90;;;2.50;;
24637;SDS011;12773;50.162;8.548;2023-04-15T03:43:34;4.75;;;2.52;;
24637;SDS011;12773;50.162;8.548;2023-04-15T03:46:21;4.28;;;2.62;;
24637;SDS011;12773;50.162;8.548;2023-04-15T03:49:09;3.67;;;2.20;;
24637;SDS011;12773;50.162;8.548;2023-04-15T03:51:57;4.28;;;2.42;;
24637;SDS011;12773;50.162;8.548;2023-04-15T03:54:44;3.15;;;2.00;;
24637;SDS011;12773;50.162;8.548;2023-04-15T03:57:32;4.58;;;2.80;;
24637;SDS011;12773;50.162;8.548;2023-04-15T04:00:21;4.42;;;2.17;;
24637;SDS011;12773;50.162;8.548;2023-04-15T04:03:09;4.42;;;2.20;;
24637;SDS011;12773;50.162;8.548;2023-04-15T04:05:57;6.62;;;2.40;;
24637;SDS011;12773;50.162;8.548;2023-04-15T04:08:45;5.03;;;2.87;;
24637;SDS011;12773;50.162;8.548;2023-04-15T04:11:32;4.50;;;2.87;;
24637;SDS011;12773;50.162;8.548;2023-04-15T04:14:20;4.03;;;2.22;;
24637;SDS011;12773;50.162;8.548;2023-04-15T04:17:08;3.67;;;2.40;;
24637;SDS011;12773;50.162;8.548;2023-04-15T04:19:56;3.98;;;2.30;;
24637;SDS011;12773;50.162;8.548;2023-04-15T04:22:43;5.95;;;2.60;;
24637;SDS011;12773;50.162;8.548;2023-04-15T04:25:31;5.33;;;2.05;;
24637;SDS011;12773;50.162;8.548;2023-04-15T04:28:18;5.78;;;2.20;;
24637;SDS011;12773;50.162;8.548;2023-04-15T04:31:06;3.90;;;2.20;;
24637;SDS011;12773;50.162;8.548;2023-04-15T04:33:54;3.77;;;2.40;;
24637;SDS011;12773;50.162;8.548;2023-04-15T04:36:41;5.75;;;3.00;;
24637;SDS011;12773;50.162;8.548;2023-04-15T04:39:29;3.52;;;2.40;;
24637;SDS011;12773;50.162;8.548;2023-04-15T04:42:17;3.37;;;2.12;;
24637;SDS011;12773;50.162;8.548;2023-04-15T04:45:04;5.00;;;2.20;;
24637;SDS011;12773;50.162;8.548;2023-04-15T04:47:53;6.85;;;2.92;;
24637;SDS011;12773;50.162;8.548;2023-04-15T04:50:41;9.85;;;2.83;;
24637;SDS011;12773;50.162;8.548;2023-04-15T04:53:29;2.70;;;2.22;;
24637;SDS011;12773;50.162;8.548;2023-04-15T04:56:16;5.40;;;2.47;;
24637;SDS011;12773;50.162;8.548;2023-04-15T04:59:04;5.83;;;2.80;;
24637;SDS011;12773;50.162;8.548;2023-04-15T05:01:52;3.90;;;2.60;;
24637;SDS011;12773;50.162;8.548;2023-04-15T05:04:39;4.25;;;2.55;;
24637;SDS011;12773;50.162;8.548;2023-04-15T05:07:27;4.05;;;2.40;;
24637;SDS011;12773;50.162;8.548;2023-04-15T05:10:14;5.65;;;2.58;;
24637;SDS011;12773;50.162;8.548;2023-04-15T05:13:02;5.50;;;2.95;;
24637;SDS011;12773;50.162;8.548;2023-04-15T05:15:50;7.37;;;2.83;;
24637;SDS011;12773;50.162;8.548;2023-04-15T05:18:37;3.27;;;2.35;;
24637;SDS011;12773;50.162;8.548;2023-04-15T05:21:25;5.65;;;2.83;;
24637;SDS011;12773;50.162;8.548;2023-04-15T05:24:12;6.92;;;3.08;;
24637;SDS011;12773;50.162;8.548;2023-04-15T05:27:00;6.28;;;2.77;;
24637;SDS011;12773;50.162;8.548;2023-04-15T05:29:48;6.05;;;3.00;;
24637;SDS011;12773;50.162;8.548;2023-04-15T05:32:36;5.12;;;2.65;;
24637;SDS011;12773;50.162;8.548;2023-04-15T05:35:23;6.03;;;2.85;;
24637;SDS011;12773;50.162;8.548;2023-04-15T05:38:10;6.17;;;2.67;;
24637;SDS011;12773;50.162;8.548;2023-04-15T05:40:57;4.30;;;3.02;;
24637;SDS011;12773;50.162;8.548;2023-04-15T05:43:45;4.92;;;2.95;;
24637;SDS011;12773;50.162;8.548;2023-04-15T05:46:32;5.12;;;2.83;;
24637;SDS011;12773;50.162;8.548;2023-04-15T05:49:19;5.97;;;3.50;;
24637;SDS011;12773;50.162;8.548;2023-04-15T05:52:07;5.72;;;3.33;;
24637;SDS011;12773;50.162;8.548;2023-04-15T05:54:54;5.65;;;3.00;;
24637;SDS011;12773;50.162;8.548;2023-04-15T05:57:42;4.83;;;2.75;;
24637;SDS011;12773;50.162;8.548;2023-04-15T06:00:29;5.25;;;3.05;;
24637;SDS011;12773;50.162;8.548;2023-04-15T06:03:17;5.20;;;3.20;;
24637;SDS011;12773;50.162;8.548;2023-04-15T06:06:05;7.37;;;3.22;;
24637;SDS011;12773;50.162;8.548;2023-04-15T06:08:52;5.97;;;3.47;;
24637;SDS011;12773;50.162;8.548;2023-04-15T06:11:40;8.95;;;3.83;;
24637;SDS011;12773;50.162;8.548;2023-04-15T06:14:28;6.33;;;4.10;;
24637;SDS011;12773;50.162;8.548;2023-04-15T06:17:16;4.92;;;3.77;;
24637;SDS011;12773;50.162;8.548;2023-04-15T06:20:05;7.37;;;4.40;;
24637;SDS011;12773;50.162;8.548;2023-04-15T06:22:52;5.58;;;3.95;;
24637;SDS011;12773;50.162;8.548;2023-04-15T06:25:40;7.30;;;4.60;;
24637;SDS011;12773;50.162;8.548;2023-04-15T06:28:28;9.18;;;4.47;;
24637;SDS011;12773;50.162;8.548;2023-04-15T06:31:15;8.88;;;4.08;;
24637;SDS011;12773;50.162;8.548;2023-04-15T06:34:03;7.05;;;3.98;;
24637;SDS011;12773;50.162;8.548;2023-04-15T06:36:50;7.95;;;4.53;;
24637;SDS011;12773;50.162;8.548;2023-04-15T06:39:39;7.65;;;3.98;;
24637;SDS011;12773;50.162;8.548;2023-04-15T06:42:28;10.55;;;4.22;;
24637;SDS011;12773;50.162;8.548;2023-04-15T06:45:15;8.18;;;3.65;;
24637;SDS011;12773;50.162;8.548;2023-04-15T06:48:03;6.92;;;4.12;;
24637;SDS011;12773;50.162;8.548;2023-04-15T06:50:51;8.23;;;4.28;;
24637;SDS011;12773;50.162;8.548;2023-04-15T06:53:38;7.00;;;3.90;;
24637;SDS011;12773;50.162;8.548;2023-04-15T06:56:27;7.42;;;3.72;;
24637;SDS011;12773;50.162;8.548;2023-04-15T06:59:14;6.37;;;3.90;;
24637;SDS011;12773;50.162;8.548;2023-04-15T07:02:01;4.42;;;3.42;;
24637;SDS011;12773;50.162;8.548;2023-04-15T07:04:49;7.78;;;4.05;;
24637;SDS011;12773;50.162;8.548;2023-04-15T07:07:37;6.70;;;3.80;;
24637;SDS011;12773;50.162;8.548;2023-04-15T07:10:24;7.62;;;4.28;;
24637;SDS011;12773;50.162;8.548;2023-04-15T07:13:12;6.80;;;4.05;;
24637;SDS011;12773;50.162;8.548;2023-04-15T07:15:59;7.53;;;4.00;;
24637;SDS011;12773;50.162;8.548;2023-04-15T07:18:47;9.40;;;3.72;;
24637;SDS011;12773;50.162;8.548;2023-04-15T07:21:34;6.62;;;3.40;;
24637;SDS011;12773;50.162;8.548;2023-04-15T07:24:21;7.30;;;3.62;;
24637;SDS011;12773;50.162;8.548;2023-04-15T07:27:10;8.03;;;3.83;;
24637;SDS011;12773;50.162;8.548;2023-04-15T07:29:58;7.53;;;3.55;;
24637;SDS011;12773;50.162;8.548;2023-04-15T07:32:47;8.90;;;3.25;;
24637;SDS011;12773;50.162;8.548;2023-04-15T07:35:34;7.08;;;4.20;;
24637;SDS011;12773;50.162;8.548;2023-04-15T07:38:22;13.18;;;4.20;;
24637;SDS011;12773;50.162;8.548;2023-04-15T07:41:09;6.08;;;3.83;;
24637;SDS011;12773;50.162;8.548;2023-04-15T07:43:57;7.62;;;4.00;;
24637;SDS011;12773;50.162;8.548;2023-04-15T07:46:44;6.92;;;3.70;;
24637;SDS011;12773;50.162;8.548;2023-04-15T07:49:32;6.62;;;3.80;;
24637;SDS011;12773;50.162;8.548;2023-04-15T07:52:19;7.08;;;3.98;;
24637;SDS011;12773;50.162;8.548;2023-04-15T07:55:07;5.67;;;3.50;;
24637;SDS011;12773;50.162;8.548;2023-04-15T07:57:56;8.03;;;4.35;;
24637;SDS011;12773;50.162;8.548;2023-04-15T08:00:43;7.78;;;4.58;;
24637;SDS011;12773;50.162;8.548;2023-04-15T08:03:32;8.50;;;4.58;;
24637;SDS011;12773;50.162;8.548;2023-04-15T08:06:19;7.45;;;4.22;;
24637;SDS011;12773;50.162;8.548;2023-04-15T08:09:07;7.15;;;3.65;;
24637;SDS011;12773;50.162;8.548;2023-04-15T08:11:55;7.80;;;3.77;;
24637;SDS011;12773;50.162;8.548;2023-04-15T08:14:45;7.97;;;3.60;;
24637;SDS011;12773;50.162;8.548;2023-04-15T08:17:33;6.87;;;3.20;;
24637;SDS011;12773;50.162;8.548;2023-04-15T08:20:21;6.90;;;3.17;;
24637;SDS011;12773;50.162;8.548;2023-04-15T08:23:08;8.40;;;3.50;;
24637;SDS011;12773;50.162;8.548;2023-04-15T08:25:56;5.92;;;2.65;;
24637;SDS011;12773;50.162;8.548;2023-04-15T08:28:44;7.67;;;3.20;;
24637;SDS011;12773;50.162;8.548;2023-04-15T08:31:35;4.67;;;2.90;;
24637;SDS011;12773;50.162;8.548;2023-04-15T08:34:22;6.53;;;3.05;;
24637;SDS011;12773;50.162;8.548;2023-04-15T08:37:10;4.00;;;2.33;;
24637;SDS011;12773;50.162;8.548;2023-04-15T08:39:58;5.85;;;2.60;;
24637;SDS011;12773;50.162;8.548;2023-04-15T08:42:46;5.78;;;2.60;;
24637;SDS011;12773;50.162;8.548;2023-04-15T08:45:36;3.85;;;2.83;;
24637;SDS011;12773;50.162;8.548;2023-04-15T08:48:25;4.92;;;2.85;;
24637;SDS011;12773;50.162;8.548;2023-04-15T08:51:20;4.37;;;2.62;;
24637;SDS011;12773;50.162;8.548;2023-04-15T08:54:10;4.35;;;2.42;;
24637;SDS011;12773;50.162;8.548;2023-04-15T08:56:57;3.70;;;2.05;;
24637;SDS011;12773;50.162;8.548;2023-04-15T08:59:45;3.58;;;2.05;;
24637;SDS011;12773;50.162;8.548;2023-04-15T09:02:33;6.00;;;2.47;;
24637;SDS011;12773;50.162;8.548;2023-04-15T09:05:21;4.15;;;2.25;;
24637;SDS011;12773;50.162;8.548;2023-04-15T09:08:09;4.00;;;2.22;;
24637;SDS011;12773;50.162;8.548;2023-04-15T09:10:57;4.33;;;2.33;;
24637;SDS011;12773;50.162;8.548;2023-04-15T09:13:44;2.72;;;1.77;;
24637;SDS011;12773;50.162;8.548;2023-04-15T09:16:54;3.65;;;2.10;;
24637;SDS011;12773;50.162;8.548;2023-04-15T09:19:39;3.30;;;1.75;;
24637;SDS011;12773;50.162;8.548;2023-04-15T09:22:30;3.65;;;1.60;;
24637;SDS011;12773;50.162;8.548;2023-04-15T09:28:22;2.47;;;1.30;;
24637;SDS011;12773;50.162;8.548;2023-04-15T09:31:06;4.92;;;1.20;;
24637;SDS011;12773;50.162;8.548;2023-04-15T09:34:01;3.83;;;1.20;;
24637;SDS011;12773;50.162;8.548;2023-04-15T09:36:53;2.35;;;1.00;;
24637;SDS011;12773;50.162;8.548;2023-04-15T09:39:45;2.70;;;1.10;;
24637;SDS011;12773;50.162;8.548;2023-04-15T09:42:35;2.05;;;0.98;;
24637;SDS011;12773;50.162;8.548;2023-04-15T09:45:23;2.42;;;1.10;;
24637;SDS011;12773;50.162;8.548;2023-04-15T09:48:16;3.42;;;1.20;;
24637;SDS011;12773;50.162;8.548;2023-04-15T09:51:10;2.08;;;1.07;;
24637;SDS011;12773;50.162;8.548;2023-04-15T09:54:04;2.95;;;0.93;;
24637;SDS011;12773;50.162;8.548;2023-04-15T09:56:51;1.80;;;0.98;;
24637;SDS011;12773;50.162;8.548;2023-04-15T09:59:39;5.17;;;0.93;;
24637;SDS011;12773;50.162;8.548;2023-04-15T10:02:26;5.45;;;1.30;;
24637;SDS011;12773;50.162;8.548;2023-04-15T10:05:15;7.05;;;1.30;;
24637;SDS011;12773;50.162;8.548;2023-04-15T10:08:03;3.90;;;1.42;;
24637;SDS011;12773;50.162;8.548;2023-04-15T10:10:52;2.45;;;0.90;;
24637;SDS011;12773;50.162;8.548;2023-04-15T10:13:40;2.72;;;1.07;;
24637;SDS011;12773;50.162;8.548;2023-04-15T10:16:28;2.65;;;1.22;;
24637;SDS011;12773;50.162;8.548;2023-04-15T10:19:18;3.83;;;1.20;;
24637;SDS011;12773;50.162;8.548;2023-04-15T10:22:08;1.92;;;1.10;;
24637;SDS011;12773;50.162;8.548;2023-04-15T10:24:56;3.10;;;1.32;;
24637;SDS011;12773;50.162;8.548;2023-04-15T10:27:47;1.60;;;1.00;;
24637;SDS011;12773;50.162;8.548;2023-04-15T10:30:37;1.82;;;1.05;;
24637;SDS011;12773;50.162;8.548;2023-04-15T10:33:25;3.42;;;1.35;;
24637;SDS011;12773;50.162;8.548;2023-04-15T10:36:14;2.00;;;1.00;;
24637;SDS011;12773;50.162;8.548;2023-04-15T10:39:01;3.90;;;1.07;;
24637;SDS011;12773;50.162;8.548;2023-04-15T10:42:06;2.12;;;1.00;;
24637;SDS011;12773;50.162;8.548;2023-04-15T10:44:56;4.35;;;1.00;;
24637;SDS011;12773;50.162;8.548;2023-04-15T10:47:43;3.00;;;1.10;;
24637;SDS011;12773;50.162;8.548;2023-04-15T10:50:31;2.80;;;0.95;;
24637;SDS011;12773;50.162;8.548;2023-04-15T10:53:25;4.15;;;1.50;;
24637;SDS011;12773;50.162;8.548;2023-04-15T10:56:16;2.85;;;1.20;;
24637;SDS011;12773;50.162;8.548;2023-04-15T10:59:04;2.17;;;1.10;;
24637;SDS011;12773;50.162;8.548;2023-04-15T11:02:00;1.57;;;0.88;;
24637;SDS011;12773;50.162;8.548;2023-04-15T11:04:55;2.50;;;1.00;;
24637;SDS011;12773;50.162;8.548;2023-04-15T11:07:48;1.67;;;0.98;;
24637;SDS011;12773;50.162;8.548;2023-04-15T11:13:27;3.42;;;0.88;;
24637;SDS011;12773;50.162;8.548;2023-04-15T11:16:16;1.80;;;0.80;;
24637;SDS011;12773;50.162;8.548;2023-04-15T11:19:04;1.00;;;0.85;;
24637;SDS011;12773;50.162;8.548;2023-04-15T11:21:52;2.60;;;0.90;;
24637;SDS011;12773;50.162;8.548;2023-04-15T11:24:46;1.20;;;0.90;;
24637;SDS011;12773;50.162;8.548;2023-04-15T11:27:34;1.12;;;0.85;;
24637;SDS011;12773;50.162;8.548;2023-04-15T11:30:23;1.85;;;0.80;;
24637;SDS011;12773;50.162;8.548;2023-04-15T11:33:11;1.32;;;0.70;;
24637;SDS011;12773;50.162;8.548;2023-04-15T11:36:00;2.17;;;1.00;;
24637;SDS011;12773;50.162;8.548;2023-04-15T11:38:48;1.22;;;0.70;;
24637;SDS011;12773;50.162;8.548;2023-04-15T11:41:39;1.70;;;0.85;;
24637;SDS011;12773;50.162;8.548;2023-04-15T11:44:28;2.67;;;0.90;;
24637;SDS011;12773;50.162;8.548;2023-04-15T11:47:22;1.15;;;0.80;;
24637;SDS011;12773;50.162;8.548;2023-04-15T11:50:17;1.77;;;1.00;;
24637;SDS011;12773;50.162;8.548;2023-04-15T11:53:06;2.75;;;0.75;;
24637;SDS011;12773;50.162;8.548;2023-04-15T11:55:55;0.80;;;0.80;;
24637;SDS011;12773;50.162;8.548;2023-04-15T11:58:42;2.30;;;1.22;;
24637;SDS011;12773;50.162;8.548;2023-04-15T12:01:36;2.45;;;1.20;;
24637;SDS011;12773;50.162;8.548;2023-04-15T12:04:21;1.00;;;0.75;;
24637;SDS011;12773;50.162;8.548;2023-04-15T12:07:10;2.72;;;0.82;;
24637;SDS011;12773;50.162;8.548;2023-04-15T12:09:58;0.90;;;0.90;;
24637;SDS011;12773;50.162;8.548;2023-04-15T12:12:48;4.42;;;0.90;;
24637;SDS011;12773;50.162;8.548;2023-04-15T12:15:37;0.85;;;0.80;;
24637;SDS011;12773;50.162;8.548;2023-04-15T12:18:24;0.88;;;0.88;;
24637;SDS011;12773;50.162;8.548;2023-04-15T12:21:12;0.90;;;0.88;;
24637;SDS011;12773;50.162;8.548;2023-04-15T12:24:06;1.25;;;0.90;;
24637;SDS011;12773;50.162;8.548;2023-04-15T12:26:51;0.80;;;0.70;;
24637;SDS011;12773;50.162;8.548;2023-04-15T12:29:44;1.50;;;1.00;;
24637;SDS011;12773;50.162;8.548;2023-04-15T12:32:38;2.00;;;1.10;;
24637;SDS011;12773;50.162;8.548;2023-04-15T12:35:21;1.10;;;1.00;;
24637;SDS011;12773;50.162;8.548;2023-04-15T12:38:08;1.12;;;0.90;;
24637;SDS011;12773;50.162;8.548;2023-04-15T12:40:57;2.15;;;1.15;;
24637;SDS011;12773;50.162;8.548;2023-04-15T12:43:45;2.67;;;1.37;;
24637;SDS011;12773;50.162;8.548;2023-04-15T12:46:32;3.87;;;1.10;;
24637;SDS011;12773;50.162;8.548;2023-04-15T12:49:20;1.32;;;1.00;;
24637;SDS011;12773;50.162;8.548;2023-04-15T12:52:09;4.55;;;1.62;;
24637;SDS011;12773;50.162;8.548;2023-04-15T12:54:56;1.80;;;1.40;;
24637;SDS011;12773;50.162;8.548;2023-04-15T12:57:45;1.87;;;1.50;;
24637;SDS011;12773;50.162;8.548;2023-04-15T13:00:33;5.35;;;1.35;;
24637;SDS011;12773;50.162;8.548;2023-04-15T13:03:20;3.70;;;2.02;;
24637;SDS011;12773;50.162;8.548;2023-04-15T13:06:08;1.75;;;1.32;;
24637;SDS011;12773;50.162;8.548;2023-04-15T13:08:56;2.00;;;1.62;;
24637;SDS011;12773;50.162;8.548;2023-04-15T13:11:44;2.35;;;1.77;;
24637;SDS011;12773;50.162;8.548;2023-04-15T13:14:31;2.95;;;1.90;;
24637;SDS011;12773;50.162;8.548;2023-04-15T13:17:18;2.83;;;1.70;;
24637;SDS011;12773;50.162;8.548;2023-04-15T13:20:06;2.85;;;1.45;;
24637;SDS011;12773;50.162;8.548;2023-04-15T13:22:54;1.60;;;1.50;;
24637;SDS011;12773;50.162;8.548;2023-04-15T13:25:42;2.47;;;1.32;;
24637;SDS011;12773;50.162;8.548;2023-04-15T13:28:29;1.65;;;1.32;;
24637;SDS011;12773;50.162;8.548;2023-04-15T13:31:16;2.00;;;1.37;;
24637;SDS011;12773;50.162;8.548;2023-04-15T13:34:04;1.52;;;0.95;;
24637;SDS011;12773;50.162;8.548;2023-04-15T13:36:52;1.45;;;0.80;;
24637;SDS011;12773;50.162;8.548;2023-04-15T13:39:39;1.65;;;0.80;;
24637;SDS011;12773;50.162;8.548;2023-04-15T13:42:26;1.52;;;0.90;;
24637;SDS011;12773;50.162;8.548;2023-04-15T13:45:13;0.88;;;0.60;;
24637;SDS011;12773;50.162;8.548;2023-04-15T13:48:00;0.82;;;0.53;;
24637;SDS011;12773;50.162;8.548;2023-04-15T13:50:48;1.50;;;0.60;;
24637;SDS011;12773;50.162;8.548;2023-04-15T13:53:36;0.40;;;0.40;;
24637;SDS011;12773;50.162;8.548;2023-04-15T13:56:25;0.60;;;0.60;;
24637;SDS011;12773;50.162;8.548;2023-04-15T13:59:12;0.50;;;0.50;;
24637;SDS011;12773;50.162;8.548;2023-04-15T14:02:00;0.95;;;0.95;;
24637;SDS011;12773;50.162;8.548;2023-04-15T14:04:48;0.70;;;0.70;;
24637;SDS011;12773;50.162;8.548;2023-04-15T14:07:35;0.55;;;0.55;;
24637;SDS011;12773;50.162;8.548;2023-04-15T14:10:24;0.98;;;0.62;;
24637;SDS011;12773;50.162;8.548;2023-04-15T14:13:12;0.57;;;0.50;;
24637;SDS011;12773;50.162;8.548;2023-04-15T14:15:59;0.57;;;0.57;;
24637;SDS011;12773;50.162;8.548;2023-04-15T14:18:47;0.80;;;0.80;;
24637;SDS011;12773;50.162;8.548;2023-04-15T14:21:34;0.50;;;0.50;;
24637;SDS011;12773;50.162;8.548;2023-04-15T14:24:22;0.62;;;0.62;;
24637;SDS011;12773;50.162;8.548;2023-04-15T14:27:10;0.50;;;0.50;;
24637;SDS011;12773;50.162;8.548;2023-04-15T14:29:57;3.72;;;0.70;;
24637;SDS011;12773;50.162;8.548;2023-04-15T14:32:45;0.55;;;0.55;;
24637;SDS011;12773;50.162;8.548;2023-04-15T14:35:32;0.70;;;0.70;;
24637;SDS011;12773;50.162;8.548;2023-04-15T14:38:20;0.78;;;0.78;;
24637;SDS011;12773;50.162;8.548;2023-04-15T14:41:08;0.70;;;0.70;;
24637;SDS011;12773;50.162;8.548;2023-04-15T14:43:55;0.70;;;0.60;;
24637;SDS011;12773;50.162;8.548;2023-04-15T14:46:42;1.05;;;0.72;;
24637;SDS011;12773;50.162;8.548;2023-04-15T14:49:30;0.70;;;0.60;;
24637;SDS011;12773;50.162;8.548;2023-04-15T14:52:17;1.05;;;0.70;;
24637;SDS011;12773;50.162;8.548;2023-04-15T14:55:05;0.57;;;0.57;;
24637;SDS011;12773;50.162;8.548;2023-04-15T14:57:56;0.40;;;0.40;;
24637;SDS011;12773;50.162;8.548;2023-04-15T15:00:44;0.57;;;0.55;;
24637;SDS011;12773;50.162;8.548;2023-04-15T15:03:31;0.60;;;0.60;;
24637;SDS011;12773;50.162;8.548;2023-04-15T15:06:20;1.25;;;0.60;;
24637;SDS011;12773;50.162;8.548;2023-04-15T15:09:07;0.60;;;0.50;;
24637;SDS011;12773;50.162;8.548;2023-04-15T15:11:55;0.68;;;0.55;;
24637;SDS011;12773;50.162;8.548;2023-04-15T15:14:43;0.55;;;0.40;;
24637;SDS011;12773;50.162;8.548;2023-04-15T15:17:30;0.70;;;0.50;;
24637;SDS011;12773;50.162;8.548;2023-04-15T15:20:18;0.40;;;0.30;;
24637;SDS011;12773;50.162;8.548;2023-04-15T15:23:06;0.50;;;0.40;;
24637;SDS011;12773;50.162;8.548;2023-04-15T15:25:53;0.35;;;0.35;;
24637;SDS011;12773;50.162;8.548;2023-04-15T15:28:41;0.57;;;0.45;;
24637;SDS011;12773;50.162;8.548;2023-04-15T15:31:29;1.72;;;0.55;;
24637;SDS011;12773;50.162;8.548;2023-04-15T15:34:17;1.22;;;0.62;;
24637;SDS011;12773;50.162;8.548;2023-04-15T15:37:05;0.72;;;0.60;;
24637;SDS011;12773;50.162;8.548;2023-04-15T15:39:52;0.40;;;0.40;;
24637;SDS011;12773;50.162;8.548;2023-04-15T15:42:39;0.62;;;0.50;;
24637;SDS011;12773;50.162;8.548;2023-04-15T15:45:27;0.50;;;0.50;;
24637;SDS011;12773;50.162;8.548;2023-04-15T15:48:15;0.50;;;0.50;;
24637;SDS011;12773;50.162;8.548;2023-04-15T15:51:03;0.50;;;0.50;;
24637;SDS011;12773;50.162;8.548;2023-04-15T15:53:50;0.65;;;0.50;;
24637;SDS011;12773;50.162;8.548;2023-04-15T15:56:38;2.45;;;0.55;;
24637;SDS011;12773;50.162;8.548;2023-04-15T15:59:26;0.53;;;0.53;;
24637;SDS011;12773;50.162;8.548;2023-04-15T16:02:14;0.70;;;0.62;;
24637;SDS011;12773;50.162;8.548;2023-04-15T16:05:02;0.93;;;0.70;;
24637;SDS011;12773;50.162;8.548;2023-04-15T16:07:49;0.60;;;0.60;;
24637;SDS011;12773;50.162;8.548;2023-04-15T16:10:36;0.82;;;0.60;;
24637;SDS011;12773;50.162;8.548;2023-04-15T16:13:24;0.60;;;0.53;;
24637;SDS011;12773;50.162;8.548;2023-04-15T16:16:11;1.05;;;0.62;;
24637;SDS011;12773;50.162;8.548;2023-04-15T16:18:59;0.53;;;0.50;;
24637;SDS011;12773;50.162;8.548;2023-04-15T16:21:46;0.95;;;0.45;;
24637;SDS011;12773;50.162;8.548;2023-04-15T16:24:34;0.33;;;0.33;;
24637;SDS011;12773;50.162;8.548;2023-04-15T16:27:22;2.27;;;0.60;;
24637;SDS011;12773;50.162;8.548;2023-04-15T16:30:10;1.12;;;0.70;;
24637;SDS011;12773;50.162;8.548;2023-04-15T16:32:58;2.37;;;0.47;;
24637;SDS011;12773;50.162;8.548;2023-04-15T16:35:45;0.40;;;0.40;;
24637;SDS011;12773;50.162;8.548;2023-04-15T16:38:33;0.65;;;0.55;;
24637;SDS011;12773;50.162;8.548;2023-04-15T16:41:20;0.60;;;0.60;;
24637;SDS011;12773;50.162;8.548;2023-04-15T16:44:08;0.93;;;0.68;;
24637;SDS011;12773;50.162;8.548;2023-04-15T16:46:56;0.70;;;0.70;;
24637;SDS011;12773;50.162;8.548;2023-04-15T16:49:45;0.65;;;0.65;;
24637;SDS011;12773;50.162;8.548;2023-04-15T16:52:33;0.65;;;0.65;;
24637;SDS011;12773;50.162;8.548;2023-04-15T16:55:20;1.22;;;0.85;;
24637;SDS011;12773;50.162;8.548;2023-04-15T16:58:08;0.75;;;0.60;;
24637;SDS011;12773;50.162;8.548;2023-04-15T17:00:55;0.80;;;0.70;;